sensor_id;sensor_type;location;lat;lon;timestamp;temperature;humidity
66708;DHT22;53622;0.000;0.000;2023-12-20T00:00:18;19.90;45.80
66708;DHT22;53622;0.000;0.000;2023-12-20T00:02:46;19.90;45.70
66708;DHT22;53622;0.000;0.000;2023-12-20T00:05:17;19.90;45.70
66708;DHT22;53622;0.000;0.000;2023-12-20T00:07:45;19.90;45.70
66708;DHT22;53622;0.000;0.000;2023-12-20T00:10:15;19.90;46.30
66708;DHT22;53622;0.000;0.000;2023-12-20T00:12:44;19.90;45.70
66708;DHT22;53622;0.000;0.000;2023-12-20T00:15:12;19.90;45.70
66708;DHT22;53622;0.000;0.000;2023-12-20T00:17:41;19.80;45.70
66708;DHT22;53622;0.000;0.000;2023-12-20T00:20:11;19.80;45.60
66708;DHT22;53622;0.000;0.000;2023-12-20T00:22:41;19.80;45.60
66708;DHT22;53622;0.000;0.000;2023-12-20T00:25:10;19.80;45.70
66708;DHT22;53622;0.000;0.000;2023-12-20T00:27:38;19.80;45.60
66708;DHT22;53622;0.000;0.000;2023-12-20T00:30:09;19.80;45.60
66708;DHT22;53622;0.000;0.000;2023-12-20T00:32:38;19.80;45.60
66708;DHT22;53622;0.000;0.000;2023-12-20T00:35:09;19.80;45.60
66708;DHT22;53622;0.000;0.000;2023-12-20T00:37:37;19.80;45.70
66708;DHT22;53622;0.000;0.000;2023-12-20T00:40:08;19.70;45.60
66708;DHT22;53622;0.000;0.000;2023-12-20T00:42:37;19.70;45.70
66708;DHT22;53622;0.000;0.000;2023-12-20T00:45:06;19.70;45.70
66708;DHT22;53622;0.000;0.000;2023-12-20T00:47:35;19.70;45.70
66708;DHT22;53622;0.000;0.000;2023-12-20T00:50:05;19.70;45.70
66708;DHT22;53622;0.000;0.000;2023-12-20T00:52:34;19.70;45.70
66708;DHT22;53622;0.000;0.000;2023-12-20T00:55:03;19.70;45.80
66708;DHT22;53622;0.000;0.000;2023-12-20T00:57:34;19.70;45.70
66708;DHT22;53622;0.000;0.000;2023-12-20T01:00:03;19.70;45.70
66708;DHT22;53622;0.000;0.000;2023-12-20T01:02:32;19.70;45.70
66708;DHT22;53622;0.000;0.000;2023-12-20T01:05:01;19.70;45.70
66708;DHT22;53622;0.000;0.000;2023-12-20T01:07:30;19.70;45.70
66708;DHT22;53622;0.000;0.000;2023-12-20T01:09:59;19.70;46.30
66708;DHT22;53622;0.000;0.000;2023-12-20T01:12:28;19.70;45.80
66708;DHT22;53622;0.000;0.000;2023-12-20T01:14:58;19.70;45.90
66708;DHT22;53622;0.000;0.000;2023-12-20T01:17:27;19.70;45.80
66708;DHT22;53622;0.000;0.000;2023-12-20T01:19:55;19.70;45.90
66708;DHT22;53622;0.000;0.000;2023-12-20T01:22:25;19.70;45.80
66708;DHT22;53622;0.000;0.000;2023-12-20T01:24:54;19.70;45.90
66708;DHT22;53622;0.000;0.000;2023-12-20T01:27:23;19.60;45.90
66708;DHT22;53622;0.000;0.000;2023-12-20T01:29:51;19.60;45.90
66708;DHT22;53622;0.000;0.000;2023-12-20T01:32:21;19.60;45.90
66708;DHT22;53622;0.000;0.000;2023-12-20T01:34:51;19.60;45.80
66708;DHT22;53622;0.000;0.000;2023-12-20T01:37:19;19.60;45.90
66708;DHT22;53622;0.000;0.000;2023-12-20T01:39:51;19.60;46.00
66708;DHT22;53622;0.000;0.000;2023-12-20T01:42:20;19.60;45.90
66708;DHT22;53622;0.000;0.000;2023-12-20T01:44:49;19.60;46.00
66708;DHT22;53622;0.000;0.000;2023-12-20T01:47:18;19.60;45.90
66708;DHT22;53622;0.000;0.000;2023-12-20T01:49:48;19.60;45.90
66708;DHT22;53622;0.000;0.000;2023-12-20T01:52:18;19.60;46.00
66708;DHT22;53622;0.000;0.000;2023-12-20T01:54:48;19.60;46.00
66708;DHT22;53622;0.000;0.000;2023-12-20T01:57:17;19.60;46.10
66708;DHT22;53622;0.000;0.000;2023-12-20T01:59:46;19.60;46.00
66708;DHT22;53622;0.000;0.000;2023-12-20T02:02:15;19.60;45.90
66708;DHT22;53622;0.000;0.000;2023-12-20T02:04:44;19.50;45.90
66708;DHT22;53622;0.000;0.000;2023-12-20T02:07:14;19.60;46.00
66708;DHT22;53622;0.000;0.000;2023-12-20T02:09:43;19.50;46.00
66708;DHT22;53622;0.000;0.000;2023-12-20T02:12:12;19.50;46.10
66708;DHT22;53622;0.000;0.000;2023-12-20T02:14:40;19.50;46.10
66708;DHT22;53622;0.000;0.000;2023-12-20T02:17:09;19.50;46.10
66708;DHT22;53622;0.000;0.000;2023-12-20T02:19:37;19.50;46.00
66708;DHT22;53622;0.000;0.000;2023-12-20T02:22:09;19.50;46.10
66708;DHT22;53622;0.000;0.000;2023-12-20T02:24:38;19.50;46.10
66708;DHT22;53622;0.000;0.000;2023-12-20T02:27:07;19.50;46.10
66708;DHT22;53622;0.000;0.000;2023-12-20T02:29:36;19.50;46.10
66708;DHT22;53622;0.000;0.000;2023-12-20T02:32:05;19.50;46.10
66708;DHT22;53622;0.000;0.000;2023-12-20T02:34:34;19.50;46.10
66708;DHT22;53622;0.000;0.000;2023-12-20T02:37:03;19.40;46.00
66708;DHT22;53622;0.000;0.000;2023-12-20T02:39:33;19.40;46.30
66708;DHT22;53622;0.000;0.000;2023-12-20T02:42:02;19.40;46.30
66708;DHT22;53622;0.000;0.000;2023-12-20T02:44:31;19.40;46.30
66708;DHT22;53622;0.000;0.000;2023-12-20T02:47:00;19.50;46.30
66708;DHT22;53622;0.000;0.000;2023-12-20T02:49:29;19.40;46.30
66708;DHT22;53622;0.000;0.000;2023-12-20T02:51:57;19.40;46.30
66708;DHT22;53622;0.000;0.000;2023-12-20T02:54:26;19.40;46.20
66708;DHT22;53622;0.000;0.000;2023-12-20T02:56:56;19.40;46.30
66708;DHT22;53622;0.000;0.000;2023-12-20T02:59:25;19.40;46.30
66708;DHT22;53622;0.000;0.000;2023-12-20T03:01:54;19.40;46.30
66708;DHT22;53622;0.000;0.000;2023-12-20T03:04:22;19.40;46.90
66708;DHT22;53622;0.000;0.000;2023-12-20T03:06:51;19.40;46.30
66708;DHT22;53622;0.000;0.000;2023-12-20T03:09:20;19.40;46.30
66708;DHT22;53622;0.000;0.000;2023-12-20T03:11:49;19.40;46.40
66708;DHT22;53622;0.000;0.000;2023-12-20T03:14:19;19.40;46.40
66708;DHT22;53622;0.000;0.000;2023-12-20T03:16:49;19.40;46.30
66708;DHT22;53622;0.000;0.000;2023-12-20T03:19:18;19.40;46.30
66708;DHT22;53622;0.000;0.000;2023-12-20T03:21:47;19.40;46.30
66708;DHT22;53622;0.000;0.000;2023-12-20T03:24:16;19.40;46.40
66708;DHT22;53622;0.000;0.000;2023-12-20T03:26:44;19.30;46.30
66708;DHT22;53622;0.000;0.000;2023-12-20T03:29:13;19.30;46.30
66708;DHT22;53622;0.000;0.000;2023-12-20T03:31:43;19.30;46.30
66708;DHT22;53622;0.000;0.000;2023-12-20T03:34:12;19.30;46.30
66708;DHT22;53622;0.000;0.000;2023-12-20T03:36:41;19.30;46.40
66708;DHT22;53622;0.000;0.000;2023-12-20T03:39:10;19.30;46.40
66708;DHT22;53622;0.000;0.000;2023-12-20T03:41:39;19.30;46.40
66708;DHT22;53622;0.000;0.000;2023-12-20T03:44:07;19.30;46.50
66708;DHT22;53622;0.000;0.000;2023-12-20T03:46:36;19.30;46.50
66708;DHT22;53622;0.000;0.000;2023-12-20T03:49:06;19.30;46.50
66708;DHT22;53622;0.000;0.000;2023-12-20T03:51:35;19.30;46.50
66708;DHT22;53622;0.000;0.000;2023-12-20T03:54:04;19.30;46.50
66708;DHT22;53622;0.000;0.000;2023-12-20T03:56:32;19.30;46.60
66708;DHT22;53622;0.000;0.000;2023-12-20T03:59:01;19.30;46.60
66708;DHT22;53622;0.000;0.000;2023-12-20T04:01:30;19.30;46.60
66708;DHT22;53622;0.000;0.000;2023-12-20T04:03:58;19.30;47.20
66708;DHT22;53622;0.000;0.000;2023-12-20T04:06:29;19.20;46.60
66708;DHT22;53622;0.000;0.000;2023-12-20T04:08:57;19.20;46.50
66708;DHT22;53622;0.000;0.000;2023-12-20T04:11:26;19.20;46.50
66708;DHT22;53622;0.000;0.000;2023-12-20T04:13:55;19.30;46.60
66708;DHT22;53622;0.000;0.000;2023-12-20T04:16:24;19.20;46.60
66708;DHT22;53622;0.000;0.000;2023-12-20T04:18:52;19.20;46.70
66708;DHT22;53622;0.000;0.000;2023-12-20T04:21:21;19.20;46.70
66708;DHT22;53622;0.000;0.000;2023-12-20T04:23:51;19.20;46.60
66708;DHT22;53622;0.000;0.000;2023-12-20T04:26:20;19.20;46.60
66708;DHT22;53622;0.000;0.000;2023-12-20T04:28:49;19.20;46.70
66708;DHT22;53622;0.000;0.000;2023-12-20T04:31:21;19.20;46.60
66708;DHT22;53622;0.000;0.000;2023-12-20T04:33:50;19.20;46.70
66708;DHT22;53622;0.000;0.000;2023-12-20T04:36:19;19.10;46.60
66708;DHT22;53622;0.000;0.000;2023-12-20T04:38:48;19.20;46.70
66708;DHT22;53622;0.000;0.000;2023-12-20T04:41:18;19.10;46.60
66708;DHT22;53622;0.000;0.000;2023-12-20T04:43:47;19.10;46.70
66708;DHT22;53622;0.000;0.000;2023-12-20T04:46:16;19.20;46.70
66708;DHT22;53622;0.000;0.000;2023-12-20T04:48:44;19.20;47.40
66708;DHT22;53622;0.000;0.000;2023-12-20T04:51:13;19.10;46.80
66708;DHT22;53622;0.000;0.000;2023-12-20T04:53:42;19.10;46.80
66708;DHT22;53622;0.000;0.000;2023-12-20T04:56:11;19.10;46.80
66708;DHT22;53622;0.000;0.000;2023-12-20T04:58:41;19.10;46.80
66708;DHT22;53622;0.000;0.000;2023-12-20T05:01:10;19.10;46.80
66708;DHT22;53622;0.000;0.000;2023-12-20T05:03:39;19.10;46.80
66708;DHT22;53622;0.000;0.000;2023-12-20T05:06:09;19.10;46.90
66708;DHT22;53622;0.000;0.000;2023-12-20T05:08:37;19.10;46.90
66708;DHT22;53622;0.000;0.000;2023-12-20T05:11:06;19.10;47.50
66708;DHT22;53622;0.000;0.000;2023-12-20T05:13:35;19.10;46.90
66708;DHT22;53622;0.000;0.000;2023-12-20T05:16:15;19.10;46.90
66708;DHT22;53622;0.000;0.000;2023-12-20T05:18:47;19.00;46.90
66708;DHT22;53622;0.000;0.000;2023-12-20T05:21:16;19.10;47.00
66708;DHT22;53622;0.000;0.000;2023-12-20T05:23:45;19.00;46.90
66708;DHT22;53622;0.000;0.000;2023-12-20T05:26:16;19.10;46.90
66708;DHT22;53622;0.000;0.000;2023-12-20T05:28:44;19.10;47.00
66708;DHT22;53622;0.000;0.000;2023-12-20T05:31:15;19.00;46.90
66708;DHT22;53622;0.000;0.000;2023-12-20T05:33:43;19.00;46.90
66708;DHT22;53622;0.000;0.000;2023-12-20T05:36:12;19.00;47.00
66708;DHT22;53622;0.000;0.000;2023-12-20T05:38:42;19.00;46.90
66708;DHT22;53622;0.000;0.000;2023-12-20T05:41:11;19.00;46.90
66708;DHT22;53622;0.000;0.000;2023-12-20T05:43:40;19.00;47.00
66708;DHT22;53622;0.000;0.000;2023-12-20T05:46:10;19.00;47.00
66708;DHT22;53622;0.000;0.000;2023-12-20T05:48:40;19.00;46.90
66708;DHT22;53622;0.000;0.000;2023-12-20T05:51:11;19.00;47.10
66708;DHT22;53622;0.000;0.000;2023-12-20T05:53:40;19.00;47.10
66708;DHT22;53622;0.000;0.000;2023-12-20T05:56:09;19.00;47.10
66708;DHT22;53622;0.000;0.000;2023-12-20T05:58:38;19.00;47.10
66708;DHT22;53622;0.000;0.000;2023-12-20T06:01:07;19.00;47.10
66708;DHT22;53622;0.000;0.000;2023-12-20T06:03:36;19.00;47.10
66708;DHT22;53622;0.000;0.000;2023-12-20T06:06:08;19.00;47.10
66708;DHT22;53622;0.000;0.000;2023-12-20T06:08:43;18.90;47.20
66708;DHT22;53622;0.000;0.000;2023-12-20T06:11:12;19.00;47.20
66708;DHT22;53622;0.000;0.000;2023-12-20T06:13:41;18.90;47.20
66708;DHT22;53622;0.000;0.000;2023-12-20T06:16:10;18.90;47.10
66708;DHT22;53622;0.000;0.000;2023-12-20T06:18:38;19.00;47.20
66708;DHT22;53622;0.000;0.000;2023-12-20T06:21:08;19.00;47.10
66708;DHT22;53622;0.000;0.000;2023-12-20T06:23:40;18.90;47.20
66708;DHT22;53622;0.000;0.000;2023-12-20T06:26:09;18.90;47.10
66708;DHT22;53622;0.000;0.000;2023-12-20T06:28:37;18.90;47.80
66708;DHT22;53622;0.000;0.000;2023-12-20T06:31:08;18.90;47.20
66708;DHT22;53622;0.000;0.000;2023-12-20T06:33:38;18.90;47.30
66708;DHT22;53622;0.000;0.000;2023-12-20T06:36:11;18.90;47.20
66708;DHT22;53622;0.000;0.000;2023-12-20T06:38:40;18.90;47.20
66708;DHT22;53622;0.000;0.000;2023-12-20T06:41:13;18.90;47.30
66708;DHT22;53622;0.000;0.000;2023-12-20T06:43:43;18.90;47.50
66708;DHT22;53622;0.000;0.000;2023-12-20T06:46:17;19.00;47.80
66708;DHT22;53622;0.000;0.000;2023-12-20T06:48:46;19.30;48.00
66708;DHT22;53622;0.000;0.000;2023-12-20T06:51:16;19.50;47.50
66708;DHT22;53622;0.000;0.000;2023-12-20T06:53:47;19.70;47.50
66708;DHT22;53622;0.000;0.000;2023-12-20T06:56:16;19.90;46.90
66708;DHT22;53622;0.000;0.000;2023-12-20T06:58:46;20.10;46.70
66708;DHT22;53622;0.000;0.000;2023-12-20T07:01:15;20.30;46.60
66708;DHT22;53622;0.000;0.000;2023-12-20T07:03:45;20.50;46.30
66708;DHT22;53622;0.000;0.000;2023-12-20T07:06:15;20.50;46.30
66708;DHT22;53622;0.000;0.000;2023-12-20T07:08:44;20.50;46.90
66708;DHT22;53622;0.000;0.000;2023-12-20T07:11:13;20.40;47.00
66708;DHT22;53622;0.000;0.000;2023-12-20T07:13:42;20.40;47.10
66708;DHT22;53622;0.000;0.000;2023-12-20T07:16:10;20.30;47.80
66708;DHT22;53622;0.000;0.000;2023-12-20T07:18:40;20.30;47.80
66708;DHT22;53622;0.000;0.000;2023-12-20T07:21:09;20.30;47.70
66708;DHT22;53622;0.000;0.000;2023-12-20T07:23:40;20.20;47.60
66708;DHT22;53622;0.000;0.000;2023-12-20T07:26:09;20.20;47.50
66708;DHT22;53622;0.000;0.000;2023-12-20T07:28:38;20.20;47.80
66708;DHT22;53622;0.000;0.000;2023-12-20T07:31:08;20.20;48.30
66708;DHT22;53622;0.000;0.000;2023-12-20T07:33:37;20.20;48.50
66708;DHT22;53622;0.000;0.000;2023-12-20T07:36:06;20.20;48.00
66708;DHT22;53622;0.000;0.000;2023-12-20T07:38:36;20.20;48.20
66708;DHT22;53622;0.000;0.000;2023-12-20T07:41:06;20.30;48.30
66708;DHT22;53622;0.000;0.000;2023-12-20T07:43:37;20.30;48.90
66708;DHT22;53622;0.000;0.000;2023-12-20T07:46:07;20.30;48.90
66708;DHT22;53622;0.000;0.000;2023-12-20T07:48:36;20.30;49.00
66708;DHT22;53622;0.000;0.000;2023-12-20T07:51:04;20.40;49.20
66708;DHT22;53622;0.000;0.000;2023-12-20T07:53:35;20.40;49.20
66708;DHT22;53622;0.000;0.000;2023-12-20T07:56:14;20.40;49.20
66708;DHT22;53622;0.000;0.000;2023-12-20T07:58:44;20.40;49.20
66708;DHT22;53622;0.000;0.000;2023-12-20T08:01:20;20.40;49.00
66708;DHT22;53622;0.000;0.000;2023-12-20T08:03:50;20.40;49.20
66708;DHT22;53622;0.000;0.000;2023-12-20T08:06:19;20.40;49.20
66708;DHT22;53622;0.000;0.000;2023-12-20T08:11:46;20.40;49.10
66708;DHT22;53622;0.000;0.000;2023-12-20T08:14:15;20.50;49.50
66708;DHT22;53622;0.000;0.000;2023-12-20T08:16:44;20.50;49.30
66708;DHT22;53622;0.000;0.000;2023-12-20T08:19:12;20.50;49.40
66708;DHT22;53622;0.000;0.000;2023-12-20T08:21:41;20.50;49.10
66708;DHT22;53622;0.000;0.000;2023-12-20T08:24:10;20.50;49.50
66708;DHT22;53622;0.000;0.000;2023-12-20T08:26:39;20.50;49.30
66708;DHT22;53622;0.000;0.000;2023-12-20T08:29:09;20.50;49.20
66708;DHT22;53622;0.000;0.000;2023-12-20T08:31:36;20.50;49.20
66708;DHT22;53622;0.000;0.000;2023-12-20T08:34:05;20.50;49.50
66708;DHT22;53622;0.000;0.000;2023-12-20T08:36:35;20.50;49.40
66708;DHT22;53622;0.000;0.000;2023-12-20T08:39:04;20.60;49.50
66708;DHT22;53622;0.000;0.000;2023-12-20T08:41:35;20.60;49.40
66708;DHT22;53622;0.000;0.000;2023-12-20T08:44:04;20.60;49.70
66708;DHT22;53622;0.000;0.000;2023-12-20T08:46:34;20.60;49.70
66708;DHT22;53622;0.000;0.000;2023-12-20T08:49:04;20.60;49.50
66708;DHT22;53622;0.000;0.000;2023-12-20T08:51:33;20.60;49.30
66708;DHT22;53622;0.000;0.000;2023-12-20T08:54:01;20.60;49.40
66708;DHT22;53622;0.000;0.000;2023-12-20T08:56:34;20.60;49.40
66708;DHT22;53622;0.000;0.000;2023-12-20T08:59:03;20.60;49.30
66708;DHT22;53622;0.000;0.000;2023-12-20T09:01:33;20.60;49.90
66708;DHT22;53622;0.000;0.000;2023-12-20T09:04:02;20.60;49.50
66708;DHT22;53622;0.000;0.000;2023-12-20T09:06:31;20.60;49.40
66708;DHT22;53622;0.000;0.000;2023-12-20T09:09:00;20.60;49.40
66708;DHT22;53622;0.000;0.000;2023-12-20T09:11:29;20.60;49.30
66708;DHT22;53622;0.000;0.000;2023-12-20T09:13:59;20.60;47.10
66708;DHT22;53622;0.000;0.000;2023-12-20T09:16:27;20.50;47.20
66708;DHT22;53622;0.000;0.000;2023-12-20T09:18:58;20.60;47.70
66708;DHT22;53622;0.000;0.000;2023-12-20T09:21:26;20.60;48.50
66708;DHT22;53622;0.000;0.000;2023-12-20T09:23:55;20.60;47.90
66708;DHT22;53622;0.000;0.000;2023-12-20T09:26:24;20.60;48.20
66708;DHT22;53622;0.000;0.000;2023-12-20T09:28:53;20.70;48.30
66708;DHT22;53622;0.000;0.000;2023-12-20T09:31:21;20.60;47.50
66708;DHT22;53622;0.000;0.000;2023-12-20T09:33:50;20.60;48.20
66708;DHT22;53622;0.000;0.000;2023-12-20T09:36:21;20.70;49.20
66708;DHT22;53622;0.000;0.000;2023-12-20T09:38:50;20.70;49.00
66708;DHT22;53622;0.000;0.000;2023-12-20T09:41:19;20.70;49.10
66708;DHT22;53622;0.000;0.000;2023-12-20T09:43:49;20.70;48.70
66708;DHT22;53622;0.000;0.000;2023-12-20T09:46:22;20.70;49.50
66708;DHT22;53622;0.000;0.000;2023-12-20T09:48:53;20.70;49.20
66708;DHT22;53622;0.000;0.000;2023-12-20T09:51:24;20.70;49.10
66708;DHT22;53622;0.000;0.000;2023-12-20T09:53:54;20.70;49.20
66708;DHT22;53622;0.000;0.000;2023-12-20T09:56:25;20.70;49.10
66708;DHT22;53622;0.000;0.000;2023-12-20T09:58:53;20.70;49.20
66708;DHT22;53622;0.000;0.000;2023-12-20T10:01:23;20.70;49.20
66708;DHT22;53622;0.000;0.000;2023-12-20T10:03:54;20.80;49.40
66708;DHT22;53622;0.000;0.000;2023-12-20T10:06:25;20.70;49.20
66708;DHT22;53622;0.000;0.000;2023-12-20T10:08:53;20.80;49.40
66708;DHT22;53622;0.000;0.000;2023-12-20T10:11:22;20.80;49.00
66708;DHT22;53622;0.000;0.000;2023-12-20T10:13:51;20.80;49.10
66708;DHT22;53622;0.000;0.000;2023-12-20T10:16:24;20.80;48.70
66708;DHT22;53622;0.000;0.000;2023-12-20T10:18:53;20.80;48.70
66708;DHT22;53622;0.000;0.000;2023-12-20T10:21:24;20.80;48.90
66708;DHT22;53622;0.000;0.000;2023-12-20T10:23:54;20.80;48.90
66708;DHT22;53622;0.000;0.000;2023-12-20T10:26:24;20.80;48.80
66708;DHT22;53622;0.000;0.000;2023-12-20T10:28:54;20.90;48.30
66708;DHT22;53622;0.000;0.000;2023-12-20T10:31:27;20.90;48.50
66708;DHT22;53622;0.000;0.000;2023-12-20T10:33:57;20.90;48.60
66708;DHT22;53622;0.000;0.000;2023-12-20T10:36:29;20.90;48.50
66708;DHT22;53622;0.000;0.000;2023-12-20T10:38:59;20.90;48.50
66708;DHT22;53622;0.000;0.000;2023-12-20T10:41:30;20.90;48.40
66708;DHT22;53622;0.000;0.000;2023-12-20T10:44:01;20.90;48.60
66708;DHT22;53622;0.000;0.000;2023-12-20T10:46:30;20.90;48.10
66708;DHT22;53622;0.000;0.000;2023-12-20T10:49:02;21.00;46.90
66708;DHT22;53622;0.000;0.000;2023-12-20T10:51:34;21.10;46.10
66708;DHT22;53622;0.000;0.000;2023-12-20T10:54:03;21.30;45.80
66708;DHT22;53622;0.000;0.000;2023-12-20T10:56:33;21.40;45.70
66708;DHT22;53622;0.000;0.000;2023-12-20T10:59:04;21.50;45.40
66708;DHT22;53622;0.000;0.000;2023-12-20T11:01:34;21.70;45.40
66708;DHT22;53622;0.000;0.000;2023-12-20T11:04:06;21.80;45.20
66708;DHT22;53622;0.000;0.000;2023-12-20T11:06:45;21.90;45.20
66708;DHT22;53622;0.000;0.000;2023-12-20T11:09:20;21.90;45.30
66708;DHT22;53622;0.000;0.000;2023-12-20T11:12:02;21.90;45.50
66708;DHT22;53622;0.000;0.000;2023-12-20T11:14:40;21.90;45.60
66708;DHT22;53622;0.000;0.000;2023-12-20T11:17:10;21.90;45.60
66708;DHT22;53622;0.000;0.000;2023-12-20T11:20:04;22.00;45.50
66708;DHT22;53622;0.000;0.000;2023-12-20T11:22:35;22.10;45.40
66708;DHT22;53622;0.000;0.000;2023-12-20T11:25:09;22.10;45.40
66708;DHT22;53622;0.000;0.000;2023-12-20T11:27:41;22.10;45.20
66708;DHT22;53622;0.000;0.000;2023-12-20T11:30:14;22.20;45.30
66708;DHT22;53622;0.000;0.000;2023-12-20T11:32:46;22.20;45.10
66708;DHT22;53622;0.000;0.000;2023-12-20T11:35:19;22.20;45.00
66708;DHT22;53622;0.000;0.000;2023-12-20T11:37:51;22.30;45.10
66708;DHT22;53622;0.000;0.000;2023-12-20T11:40:20;22.30;44.90
66708;DHT22;53622;0.000;0.000;2023-12-20T11:42:50;22.40;44.90
66708;DHT22;53622;0.000;0.000;2023-12-20T11:45:23;22.40;44.90
66708;DHT22;53622;0.000;0.000;2023-12-20T11:47:57;22.40;44.90
66708;DHT22;53622;0.000;0.000;2023-12-20T11:50:26;22.40;44.80
66708;DHT22;53622;0.000;0.000;2023-12-20T11:52:57;22.50;44.90
66708;DHT22;53622;0.000;0.000;2023-12-20T11:55:26;22.40;45.10
66708;DHT22;53622;0.000;0.000;2023-12-20T11:57:54;22.40;45.00
66708;DHT22;53622;0.000;0.000;2023-12-20T12:00:25;22.50;44.90
66708;DHT22;53622;0.000;0.000;2023-12-20T12:02:57;22.50;45.00
66708;DHT22;53622;0.000;0.000;2023-12-20T12:05:26;22.50;44.90
66708;DHT22;53622;0.000;0.000;2023-12-20T12:07:56;22.50;44.90
66708;DHT22;53622;0.000;0.000;2023-12-20T12:10:25;22.60;44.80
66708;DHT22;53622;0.000;0.000;2023-12-20T12:12:54;22.60;44.70
66708;DHT22;53622;0.000;0.000;2023-12-20T12:15:23;22.70;44.60
66708;DHT22;53622;0.000;0.000;2023-12-20T12:17:55;22.70;44.60
66708;DHT22;53622;0.000;0.000;2023-12-20T12:20:24;22.70;44.60
66708;DHT22;53622;0.000;0.000;2023-12-20T12:23:02;22.70;44.60
66708;DHT22;53622;0.000;0.000;2023-12-20T12:25:32;22.60;45.00
66708;DHT22;53622;0.000;0.000;2023-12-20T12:28:04;22.60;45.70
66708;DHT22;53622;0.000;0.000;2023-12-20T12:30:34;22.60;45.70
66708;DHT22;53622;0.000;0.000;2023-12-20T12:33:12;22.70;45.90
66708;DHT22;53622;0.000;0.000;2023-12-20T12:35:41;22.70;46.10
66708;DHT22;53622;0.000;0.000;2023-12-20T12:38:12;22.80;46.30
66708;DHT22;53622;0.000;0.000;2023-12-20T12:40:43;22.90;46.50
66708;DHT22;53622;0.000;0.000;2023-12-20T12:43:12;22.80;47.70
66708;DHT22;53622;0.000;0.000;2023-12-20T12:45:41;22.60;48.10
66708;DHT22;53622;0.000;0.000;2023-12-20T12:48:11;22.50;48.40
66708;DHT22;53622;0.000;0.000;2023-12-20T12:50:38;22.40;48.70
66708;DHT22;53622;0.000;0.000;2023-12-20T12:53:07;22.40;48.80
66708;DHT22;53622;0.000;0.000;2023-12-20T12:55:37;22.30;48.90
66708;DHT22;53622;0.000;0.000;2023-12-20T12:58:06;22.30;48.60
66708;DHT22;53622;0.000;0.000;2023-12-20T13:00:35;22.30;48.90
66708;DHT22;53622;0.000;0.000;2023-12-20T13:03:04;22.30;48.90
66708;DHT22;53622;0.000;0.000;2023-12-20T13:05:33;22.20;48.80
66708;DHT22;53622;0.000;0.000;2023-12-20T13:08:06;22.20;48.80
66708;DHT22;53622;0.000;0.000;2023-12-20T13:10:38;22.20;48.30
66708;DHT22;53622;0.000;0.000;2023-12-20T13:13:07;22.30;47.80
66708;DHT22;53622;0.000;0.000;2023-12-20T13:15:35;22.30;47.70
66708;DHT22;53622;0.000;0.000;2023-12-20T13:18:05;22.30;47.40
66708;DHT22;53622;0.000;0.000;2023-12-20T13:20:34;22.40;47.30
66708;DHT22;53622;0.000;0.000;2023-12-20T13:23:03;22.40;47.10
66708;DHT22;53622;0.000;0.000;2023-12-20T13:25:32;22.40;47.00
66708;DHT22;53622;0.000;0.000;2023-12-20T13:28:02;22.40;46.80
66708;DHT22;53622;0.000;0.000;2023-12-20T13:30:31;22.40;46.80
66708;DHT22;53622;0.000;0.000;2023-12-20T13:33:00;22.40;46.80
66708;DHT22;53622;0.000;0.000;2023-12-20T13:35:29;22.40;46.60
66708;DHT22;53622;0.000;0.000;2023-12-20T13:37:58;22.40;46.60
66708;DHT22;53622;0.000;0.000;2023-12-20T13:40:27;22.40;46.60
66708;DHT22;53622;0.000;0.000;2023-12-20T13:42:56;22.40;46.50
66708;DHT22;53622;0.000;0.000;2023-12-20T13:45:26;22.40;46.50
66708;DHT22;53622;0.000;0.000;2023-12-20T13:47:55;22.40;46.40
66708;DHT22;53622;0.000;0.000;2023-12-20T13:50:24;22.40;46.30
66708;DHT22;53622;0.000;0.000;2023-12-20T13:52:53;22.50;46.30
66708;DHT22;53622;0.000;0.000;2023-12-20T13:55:22;22.40;46.20
66708;DHT22;53622;0.000;0.000;2023-12-20T13:57:52;22.40;46.30
66708;DHT22;53622;0.000;0.000;2023-12-20T14:00:22;22.40;46.30
66708;DHT22;53622;0.000;0.000;2023-12-20T14:02:53;22.40;46.20
66708;DHT22;53622;0.000;0.000;2023-12-20T14:05:21;22.40;46.20
66708;DHT22;53622;0.000;0.000;2023-12-20T14:07:55;22.40;46.20
66708;DHT22;53622;0.000;0.000;2023-12-20T14:10:26;22.40;46.30
66708;DHT22;53622;0.000;0.000;2023-12-20T14:12:55;22.30;46.10
66708;DHT22;53622;0.000;0.000;2023-12-20T14:15:24;22.30;46.20
66708;DHT22;53622;0.000;0.000;2023-12-20T14:17:55;22.30;45.90
66708;DHT22;53622;0.000;0.000;2023-12-20T14:20:24;22.30;46.00
66708;DHT22;53622;0.000;0.000;2023-12-20T14:22:54;22.20;46.50
66708;DHT22;53622;0.000;0.000;2023-12-20T14:25:22;22.20;46.40
66708;DHT22;53622;0.000;0.000;2023-12-20T14:27:51;22.20;46.20
66708;DHT22;53622;0.000;0.000;2023-12-20T14:30:20;22.20;46.60
66708;DHT22;53622;0.000;0.000;2023-12-20T14:32:49;22.10;47.40
66708;DHT22;53622;0.000;0.000;2023-12-20T14:35:19;22.10;47.70
66708;DHT22;53622;0.000;0.000;2023-12-20T14:37:48;22.00;47.70
66708;DHT22;53622;0.000;0.000;2023-12-20T14:40:17;22.00;48.50
66708;DHT22;53622;0.000;0.000;2023-12-20T14:42:46;22.00;48.00
66708;DHT22;53622;0.000;0.000;2023-12-20T14:45:15;22.00;48.50
66708;DHT22;53622;0.000;0.000;2023-12-20T14:47:44;22.00;48.50
66708;DHT22;53622;0.000;0.000;2023-12-20T14:50:15;22.00;48.60
66708;DHT22;53622;0.000;0.000;2023-12-20T14:52:48;21.90;48.80
66708;DHT22;53622;0.000;0.000;2023-12-20T14:55:16;21.90;48.50
66708;DHT22;53622;0.000;0.000;2023-12-20T14:57:46;21.90;48.80
66708;DHT22;53622;0.000;0.000;2023-12-20T15:00:17;21.90;48.20
66708;DHT22;53622;0.000;0.000;2023-12-20T15:02:46;21.80;48.30
66708;DHT22;53622;0.000;0.000;2023-12-20T15:05:15;21.80;48.60
66708;DHT22;53622;0.000;0.000;2023-12-20T15:07:45;21.90;48.20
66708;DHT22;53622;0.000;0.000;2023-12-20T15:10:16;21.90;48.50
66708;DHT22;53622;0.000;0.000;2023-12-20T15:12:45;21.90;48.20
66708;DHT22;53622;0.000;0.000;2023-12-20T15:15:14;22.00;47.80
66708;DHT22;53622;0.000;0.000;2023-12-20T15:18:17;22.00;47.00
66708;DHT22;53622;0.000;0.000;2023-12-20T15:20:46;22.10;47.00
66708;DHT22;53622;0.000;0.000;2023-12-20T15:23:15;22.00;46.90
66708;DHT22;53622;0.000;0.000;2023-12-20T15:25:44;22.00;47.80
66708;DHT22;53622;0.000;0.000;2023-12-20T15:28:13;22.00;48.50
66708;DHT22;53622;0.000;0.000;2023-12-20T15:30:42;21.90;47.50
66708;DHT22;53622;0.000;0.000;2023-12-20T15:33:11;22.00;47.20
66708;DHT22;53622;0.000;0.000;2023-12-20T15:35:41;22.10;46.80
66708;DHT22;53622;0.000;0.000;2023-12-20T15:38:09;22.10;47.60
66708;DHT22;53622;0.000;0.000;2023-12-20T15:40:38;22.10;47.10
66708;DHT22;53622;0.000;0.000;2023-12-20T15:43:07;22.00;47.40
66708;DHT22;53622;0.000;0.000;2023-12-20T15:45:36;22.10;46.50
66708;DHT22;53622;0.000;0.000;2023-12-20T15:48:36;22.30;46.90
66708;DHT22;53622;0.000;0.000;2023-12-20T15:51:05;22.50;45.80
66708;DHT22;53622;0.000;0.000;2023-12-20T15:53:34;22.40;46.00
66708;DHT22;53622;0.000;0.000;2023-12-20T15:56:05;22.40;47.30
66708;DHT22;53622;0.000;0.000;2023-12-20T15:58:34;22.50;45.50
66708;DHT22;53622;0.000;0.000;2023-12-20T16:01:03;22.60;45.70
66708;DHT22;53622;0.000;0.000;2023-12-20T16:03:32;22.60;46.00